createdAt,value
2022-08-03T00:00:55.202Z,60.89
2022-08-03T00:06:03.826Z,61.00
2022-08-03T00:11:08.269Z,60.95
2022-08-03T00:16:11.475Z,61.01
2022-08-03T00:21:14.414Z,61.19
2022-08-03T00:26:18.700Z,61.14
2022-08-03T00:31:40.034Z,61.28
2022-08-03T00:36:44.448Z,61.33
2022-08-03T00:41:47.332Z,61.43
2022-08-03T00:46:50.175Z,61.50
2022-08-03T00:51:53.172Z,61.59
2022-08-03T00:56:59.728Z,61.59
2022-08-03T01:02:03.447Z,61.74
2022-08-03T01:07:22.067Z,61.75
2022-08-03T01:12:33.231Z,61.85
2022-08-03T01:17:44.219Z,62.01
2022-08-03T01:23:03.535Z,62.12
2022-08-03T01:28:15.339Z,62.18
2022-08-03T01:33:22.904Z,62.29
2022-08-03T01:38:32.248Z,62.34
2022-08-03T01:43:55.454Z,62.32
2022-08-03T01:49:01.377Z,62.48
2022-08-03T01:54:13.709Z,62.74
2022-08-03T01:59:19.144Z,62.65
2022-08-03T02:04:22.623Z,62.85
2022-08-03T02:09:28.916Z,62.83
2022-08-03T02:14:31.977Z,62.84
2022-08-03T02:19:36.143Z,62.58
2022-08-03T02:24:39.241Z,62.73
2022-08-03T02:29:45.927Z,62.90
2022-08-03T02:34:51.899Z,63.01
2022-08-03T02:40:01.145Z,63.01
2022-08-03T02:45:08.905Z,62.97
2022-08-03T02:50:15.551Z,62.94
2022-08-03T02:55:20.561Z,63.02
2022-08-03T03:00:28.135Z,62.97
2022-08-03T03:05:54.836Z,62.98
2022-08-03T03:10:57.289Z,62.85
2022-08-03T03:16:02.753Z,62.53
2022-08-03T03:21:08.503Z,62.68
2022-08-03T03:26:13.386Z,62.59
2022-08-03T03:31:16.632Z,62.74
2022-08-03T03:36:19.719Z,62.70
2022-08-03T03:41:22.711Z,63.15
2022-08-03T03:46:26.038Z,62.92
2022-08-03T03:51:28.955Z,63.04
2022-08-03T03:56:31.807Z,62.86
2022-08-03T04:01:34.680Z,62.96
2022-08-03T04:06:56.158Z,62.86
2022-08-03T04:12:01.983Z,62.65
2022-08-03T04:17:09.400Z,62.44
2022-08-03T04:22:15.882Z,62.18
2022-08-03T04:27:23.338Z,61.86
2022-08-03T04:32:28.901Z,62.21
2022-08-03T04:37:48.077Z,62.71
2022-08-03T04:42:52.950Z,62.92
2022-08-03T04:47:56.315Z,63.04
2022-08-03T04:52:59.538Z,63.34
2022-08-03T04:58:04.781Z,63.50
2022-08-03T05:03:19.399Z,63.51
2022-08-03T05:08:28.411Z,63.66
2022-08-03T05:13:31.565Z,63.72
2022-08-03T05:18:35.983Z,63.80
2022-08-03T05:23:38.926Z,63.84
2022-08-03T05:28:51.089Z,63.86
2022-08-03T05:33:54.805Z,63.76
2022-08-03T05:39:02.499Z,63.80
2022-08-03T05:44:06.604Z,64.00
2022-08-03T05:49:09.521Z,64.02
2022-08-03T05:54:12.492Z,63.84
2022-08-03T05:59:37.181Z,63.87
2022-08-03T06:04:38.243Z,63.76
2022-08-03T06:10:34.983Z,63.69
2022-08-03T06:15:05.200Z,63.43
2022-08-03T06:20:11.643Z,63.60
2022-08-03T06:25:15.013Z,63.61
2022-08-03T06:30:21.298Z,63.14
2022-08-03T06:35:24.683Z,62.98
2022-08-03T06:40:31.567Z,62.97
2022-08-03T06:45:35.448Z,62.90
2022-08-03T06:50:42.562Z,62.93
2022-08-03T06:55:45.528Z,62.96
2022-08-03T07:00:48.385Z,62.70
2022-08-03T07:05:51.503Z,62.68
2022-08-03T07:10:54.614Z,62.45
2022-08-03T07:15:57.579Z,62.34
2022-08-03T07:21:00.560Z,62.18
2022-08-03T07:26:03.671Z,62.14
2022-08-03T07:31:06.506Z,62.07
2022-08-03T07:36:09.363Z,62.01
2022-08-03T07:41:12.462Z,62.04
2022-08-03T07:46:15.549Z,61.85
2022-08-03T07:51:18.549Z,61.80
2022-08-03T07:56:21.538Z,61.71
2022-08-03T08:01:24.608Z,61.56
2022-08-03T08:06:27.540Z,61.47
2022-08-03T08:11:30.387Z,61.38
2022-08-03T08:16:33.288Z,61.14
2022-08-03T08:21:53.649Z,60.79
2022-08-03T08:26:58.960Z,60.44
2022-08-03T08:32:01.903Z,60.42
2022-08-03T08:37:05.224Z,60.35
2022-08-03T08:42:08.045Z,60.16
2022-08-03T08:47:12.319Z,60.16
2022-08-03T08:52:24.959Z,59.90
2022-08-03T08:57:42.918Z,59.57
2022-08-03T09:02:47.077Z,59.23
2022-08-03T09:07:52.231Z,58.92
2022-08-03T09:12:55.241Z,58.43
2022-08-03T09:18:01.209Z,58.42
2022-08-03T09:23:44.512Z,57.80
2022-08-03T09:28:53.876Z,57.52
2022-08-03T09:34:01.754Z,57.69
2022-08-03T09:39:13.074Z,57.91
2022-08-03T09:44:25.788Z,57.71
2022-08-03T09:49:29.125Z,57.14
2022-08-03T09:54:32.713Z,56.71
2022-08-03T09:59:35.670Z,56.01
2022-08-03T10:04:48.572Z,55.68
2022-08-03T10:10:28.978Z,55.59
2022-08-03T10:16:21.427Z,55.70
2022-08-03T10:20:52.157Z,56.14
2022-08-03T10:26:02.071Z,55.97
2022-08-03T10:31:07.744Z,55.84
2022-08-03T10:36:13.626Z,55.58
2022-08-03T10:41:20.159Z,54.99
2022-08-03T10:46:23.434Z,54.59
2022-08-03T10:51:31.994Z,54.25
2022-08-03T10:56:53.511Z,54.60
2022-08-03T11:02:00.778Z,54.60
2022-08-03T11:07:25.374Z,54.05
2022-08-03T11:12:33.173Z,53.62
2022-08-03T11:17:46.881Z,53.80
2022-08-03T11:23:01.849Z,53.95
2022-08-03T11:28:30.690Z,53.39
2022-08-03T11:33:33.710Z,53.04
2022-08-03T11:39:16.880Z,52.68
2022-08-03T11:44:42.256Z,51.71
2022-08-03T11:49:51.930Z,50.82
2022-08-03T11:54:56.895Z,50.35
2022-08-03T12:00:00.614Z,50.20
2022-08-03T12:05:03.906Z,50.40
2022-08-03T12:10:12.342Z,50.08
2022-08-03T12:15:15.246Z,49.96
2022-08-03T12:20:34.644Z,49.41
2022-08-03T12:25:40.126Z,49.05
2022-08-03T12:30:43.857Z,49.01
2022-08-03T12:36:08.328Z,48.15
2022-08-03T12:41:13.765Z,47.79
2022-08-03T12:46:18.337Z,47.70
2022-08-03T12:51:21.081Z,46.71
2022-08-03T12:56:24.764Z,46.29
2022-08-03T13:01:37.337Z,46.37
2022-08-03T13:06:40.233Z,46.45
2022-08-03T13:11:52.522Z,46.29
2022-08-03T13:17:06.526Z,46.76
2022-08-03T13:22:24.914Z,46.74
2022-08-03T13:28:04.478Z,46.17
2022-08-03T13:32:52.350Z,45.57
2022-08-03T13:37:55.212Z,45.10
2022-08-03T13:42:58.602Z,44.41
2022-08-03T13:48:01.580Z,43.16
2022-08-03T13:53:04.642Z,42.49
2022-08-03T13:58:09.716Z,42.59
2022-08-03T14:03:14.395Z,42.05
2022-08-03T14:08:18.363Z,41.16
2022-08-03T14:13:21.296Z,40.94
2022-08-03T14:18:28.564Z,40.64
2022-08-03T14:23:39.893Z,40.19
2022-08-03T14:28:42.739Z,39.98
2022-08-03T14:33:45.927Z,39.95
2022-08-03T14:38:48.756Z,39.66
2022-08-03T14:44:02.145Z,39.55
2022-08-03T14:50:36.976Z,39.54
2022-08-03T14:54:31.090Z,39.35
2022-08-03T14:59:55.581Z,39.40
2022-08-03T15:04:57.089Z,39.39
2022-08-03T15:10:00.013Z,39.37
2022-08-03T15:15:06.015Z,39.61
2022-08-03T15:20:22.531Z,39.46
2022-08-03T15:26:06.493Z,39.75
2022-08-03T15:30:55.550Z,39.88
2022-08-03T15:36:00.351Z,40.00
2022-08-03T15:41:03.556Z,39.79
2022-08-03T15:46:28.653Z,39.57
2022-08-03T15:51:30.014Z,39.39
2022-08-03T15:56:32.906Z,39.56
2022-08-03T16:01:36.044Z,39.75
2022-08-03T16:06:39.017Z,39.80
2022-08-03T16:11:41.881Z,39.95
2022-08-03T16:16:44.731Z,39.83
2022-08-03T16:21:50.169Z,39.94
2022-08-03T16:26:53.232Z,40.42
2022-08-03T16:31:56.083Z,40.65
2022-08-03T16:37:11.763Z,40.70
2022-08-03T16:42:22.967Z,40.76
2022-08-03T16:47:25.845Z,40.80
2022-08-03T16:52:28.792Z,40.85
2022-08-03T16:57:58.241Z,41.16
2022-08-03T17:02:56.942Z,41.12
2022-08-03T17:08:05.221Z,41.29
2022-08-03T17:13:21.453Z,41.36
2022-08-03T17:18:29.816Z,41.43
2022-08-03T17:23:53.608Z,41.76
2022-08-03T17:29:12.812Z,41.81
2022-08-03T17:34:16.741Z,42.12
2022-08-03T17:39:41.826Z,42.58
2022-08-03T17:44:47.101Z,42.92
2022-08-03T17:49:50.161Z,43.25
2022-08-03T17:55:55.587Z,43.49
2022-08-03T18:00:59.640Z,43.83
2022-08-03T18:06:11.163Z,43.98
2022-08-03T18:11:21.842Z,44.27
2022-08-03T18:16:31.395Z,44.38
2022-08-03T18:21:41.421Z,44.74
2022-08-03T18:26:59.599Z,45.17
2022-08-03T18:32:13.247Z,45.25
2022-08-03T18:37:23.012Z,45.37
2022-08-03T18:42:27.775Z,45.68
2022-08-03T18:47:50.514Z,45.79
2022-08-03T18:53:19.638Z,46.22
2022-08-03T18:58:40.745Z,46.55
2022-08-03T19:03:48.340Z,47.03
2022-08-03T19:09:04.358Z,47.27
2022-08-03T19:14:11.345Z,47.48
2022-08-03T19:19:18.136Z,47.70
2022-08-03T19:24:26.124Z,48.13
2022-08-03T19:29:57.947Z,48.36
2022-08-03T19:34:54.973Z,48.50
2022-08-03T19:39:58.612Z,48.91
2022-08-03T19:45:13.914Z,49.25
2022-08-03T19:50:20.121Z,49.44
2022-08-03T19:55:26.546Z,49.69
2022-08-03T20:00:38.244Z,49.99
2022-08-03T20:05:51.846Z,50.14
2022-08-03T20:10:55.611Z,50.47
2022-08-03T20:15:58.569Z,50.73
2022-08-03T20:21:14.741Z,50.91
2022-08-03T20:26:20.350Z,50.95
2022-08-03T20:31:32.560Z,51.19
2022-08-03T20:36:39.313Z,51.38
2022-08-03T20:41:42.451Z,51.64
2022-08-03T20:46:53.516Z,51.81
2022-08-03T20:52:03.935Z,52.07
2022-08-03T20:57:09.565Z,52.28
2022-08-03T21:02:13.228Z,52.45
2022-08-03T21:07:24.072Z,52.63
2022-08-03T21:12:41.349Z,52.87
2022-08-03T21:17:48.219Z,53.09
2022-08-03T21:22:54.278Z,53.31
2022-08-03T21:27:58.063Z,53.50
2022-08-03T21:33:01.052Z,53.73
2022-08-03T21:38:19.527Z,53.90
2022-08-03T21:43:22.748Z,54.15
2022-08-03T21:48:27.313Z,54.33
2022-08-03T21:54:02.727Z,54.43
2022-08-03T21:59:04.678Z,54.56
2022-08-03T22:04:11.819Z,54.66
2022-08-03T22:09:31.148Z,54.89
2022-08-03T22:14:34.065Z,54.98
2022-08-03T22:19:37.323Z,55.17
2022-08-03T22:24:44.395Z,55.22
2022-08-03T22:29:49.412Z,55.35
2022-08-03T22:34:52.921Z,55.53
2022-08-03T22:39:57.086Z,55.72
2022-08-03T22:45:02.299Z,55.74
2022-08-03T22:50:31.878Z,55.99
2022-08-03T22:55:31.366Z,56.09
2022-08-03T23:00:34.309Z,56.17
2022-08-03T23:06:01.020Z,56.09
2022-08-03T23:11:06.172Z,56.27
2022-08-03T23:16:09.929Z,56.34
2022-08-03T23:21:15.224Z,56.49
2022-08-03T23:26:18.579Z,56.57
2022-08-03T23:31:22.133Z,56.78
2022-08-03T23:36:30.411Z,56.83
2022-08-03T23:41:35.726Z,56.95
2022-08-03T23:46:39.340Z,57.04
2022-08-03T23:51:57.161Z,57.25
2022-08-03T23:57:17.884Z,57.34
